sensor_id;sensor_type;location;lat;lon;timestamp;P1;P2;P0
28647;PMS5003;17137;51.494;-0.262;2023-09-08T00:00:10;16;15;
28647;PMS5003;17137;51.494;-0.262;2023-09-08T00:00:41;16;15;
28647;PMS5003;17137;51.494;-0.262;2023-09-08T00:01:11;16;15;
28647;PMS5003;17137;51.494;-0.262;2023-09-08T00:01:41;16;15;
28647;PMS5003;17137;51.494;-0.262;2023-09-08T00:02:11;16;16;
28647;PMS5003;17137;51.494;-0.262;2023-09-08T00:02:42;16;16;
28647;PMS5003;17137;51.494;-0.262;2023-09-08T00:03:12;16;16;
28647;PMS5003;17137;51.494;-0.262;2023-09-08T00:03:42;17;15;
28647;PMS5003;17137;51.494;-0.262;2023-09-08T00:04:12;16;15;
28647;PMS5003;17137;51.494;-0.262;2023-09-08T00:04:43;16;15;
28647;PMS5003;17137;51.494;-0.262;2023-09-08T00:05:13;18;16;
28647;PMS5003;17137;51.494;-0.262;2023-09-08T00:05:43;18;16;
28647;PMS5003;17137;51.494;-0.262;2023-09-08T00:06:13;18;16;
28647;PMS5003;17137;51.494;-0.262;2023-09-08T00:06:44;18;16;
28647;PMS5003;17137;51.494;-0.262;2023-09-08T00:07:14;18;16;
28647;PMS5003;17137;51.494;-0.262;2023-09-08T00:07:44;18;16;
28647;PMS5003;17137;51.494;-0.262;2023-09-08T00:08:14;18;15;
28647;PMS5003;17137;51.494;-0.262;2023-09-08T00:08:45;18;15;
28647;PMS5003;17137;51.494;-0.262;2023-09-08T00:09:15;18;15;
28647;PMS5003;17137;51.494;-0.262;2023-09-08T00:09:45;17;15;
28647;PMS5003;17137;51.494;-0.262;2023-09-08T00:10:16;17;15;
28647;PMS5003;17137;51.494;-0.262;2023-09-08T00:10:46;17;15;
28647;PMS5003;17137;51.494;-0.262;2023-09-08T00:11:16;17;15;
28647;PMS5003;17137;51.494;-0.262;2023-09-08T00:11:47;17;15;
28647;PMS5003;17137;51.494;-0.262;2023-09-08T00:12:17;17;16;
28647;PMS5003;17137;51.494;-0.262;2023-09-08T00:12:47;17;16;
28647;PMS5003;17137;51.494;-0.262;2023-09-08T00:13:18;16;15;
28647;PMS5003;17137;51.494;-0.262;2023-09-08T00:13:48;15;14;
28647;PMS5003;17137;51.494;-0.262;2023-09-08T00:14:18;15;14;
28647;PMS5003;17137;51.494;-0.262;2023-09-08T00:14:48;16;15;
28647;PMS5003;17137;51.494;-0.262;2023-09-08T00:15:19;15;13;
28647;PMS5003;17137;51.494;-0.262;2023-09-08T00:15:49;15;13;
28647;PMS5003;17137;51.494;-0.262;2023-09-08T00:16:19;15;13;
28647;PMS5003;17137;51.494;-0.262;2023-09-08T00:16:51;13;11;
28647;PMS5003;17137;51.494;-0.262;2023-09-08T00:17:22;13;11;
28647;PMS5003;17137;51.494;-0.262;2023-09-08T00:17:52;13;11;
28647;PMS5003;17137;51.494;-0.262;2023-09-08T00:18:22;12;12;
28647;PMS5003;17137;51.494;-0.262;2023-09-08T00:18:58;12;12;
28647;PMS5003;17137;51.494;-0.262;2023-09-08T00:19:28;12;12;
28647;PMS5003;17137;51.494;-0.262;2023-09-08T00:19:58;12;12;
28647;PMS5003;17137;51.494;-0.262;2023-09-08T00:20:29;18;17;
28647;PMS5003;17137;51.494;-0.262;2023-09-08T00:20:59;18;17;
28647;PMS5003;17137;51.494;-0.262;2023-09-08T00:21:29;17;16;
28647;PMS5003;17137;51.494;-0.262;2023-09-08T00:22:00;17;16;
28647;PMS5003;17137;51.494;-0.262;2023-09-08T00:22:30;17;16;
28647;PMS5003;17137;51.494;-0.262;2023-09-08T00:23:00;17;15;
28647;PMS5003;17137;51.494;-0.262;2023-09-08T00:23:30;18;16;
28647;PMS5003;17137;51.494;-0.262;2023-09-08T00:24:00;18;16;
28647;PMS5003;17137;51.494;-0.262;2023-09-08T00:24:31;19;16;
28647;PMS5003;17137;51.494;-0.262;2023-09-08T00:25:01;18;15;
28647;PMS5003;17137;51.494;-0.262;2023-09-08T00:25:31;18;15;
28647;PMS5003;17137;51.494;-0.262;2023-09-08T00:26:01;18;16;
28647;PMS5003;17137;51.494;-0.262;2023-09-08T00:26:32;18;16;
28647;PMS5003;17137;51.494;-0.262;2023-09-08T00:27:02;19;17;
28647;PMS5003;17137;51.494;-0.262;2023-09-08T00:27:33;19;16;
28647;PMS5003;17137;51.494;-0.262;2023-09-08T00:28:03;19;16;
28647;PMS5003;17137;51.494;-0.262;2023-09-08T00:28:33;24;18;
28647;PMS5003;17137;51.494;-0.262;2023-09-08T00:29:04;24;18;
28647;PMS5003;17137;51.494;-0.262;2023-09-08T00:29:34;24;18;
28647;PMS5003;17137;51.494;-0.262;2023-09-08T00:30:05;24;18;
28647;PMS5003;17137;51.494;-0.262;2023-09-08T00:30:36;22;17;
28647;PMS5003;17137;51.494;-0.262;2023-09-08T00:31:06;22;17;
28647;PMS5003;17137;51.494;-0.262;2023-09-08T00:31:36;22;17;
28647;PMS5003;17137;51.494;-0.262;2023-09-08T00:32:06;22;17;
28647;PMS5003;17137;51.494;-0.262;2023-09-08T00:32:37;22;17;
28647;PMS5003;17137;51.494;-0.262;2023-09-08T00:33:07;22;17;
28647;PMS5003;17137;51.494;-0.262;2023-09-08T00:33:37;19;16;
28647;PMS5003;17137;51.494;-0.262;2023-09-08T00:34:07;19;16;
28647;PMS5003;17137;51.494;-0.262;2023-09-08T00:34:40;19;16;
28647;PMS5003;17137;51.494;-0.262;2023-09-08T00:35:11;20;17;
28647;PMS5003;17137;51.494;-0.262;2023-09-08T00:35:43;20;17;
28647;PMS5003;17137;51.494;-0.262;2023-09-08T00:36:14;20;17;
28647;PMS5003;17137;51.494;-0.262;2023-09-08T00:36:44;21;20;
28647;PMS5003;17137;51.494;-0.262;2023-09-08T00:37:14;20;19;
28647;PMS5003;17137;51.494;-0.262;2023-09-08T00:37:44;21;20;
28647;PMS5003;17137;51.494;-0.262;2023-09-08T00:38:15;21;20;
28647;PMS5003;17137;51.494;-0.262;2023-09-08T00:38:45;21;20;
28647;PMS5003;17137;51.494;-0.262;2023-09-08T00:39:20;21;20;
28647;PMS5003;17137;51.494;-0.262;2023-09-08T00:39:51;22;21;
28647;PMS5003;17137;51.494;-0.262;2023-09-08T00:40:21;22;21;
28647;PMS5003;17137;51.494;-0.262;2023-09-08T00:40:51;22;21;
28647;PMS5003;17137;51.494;-0.262;2023-09-08T00:41:22;19;19;
28647;PMS5003;17137;51.494;-0.262;2023-09-08T00:41:52;19;19;
28647;PMS5003;17137;51.494;-0.262;2023-09-08T00:42:23;19;19;
28647;PMS5003;17137;51.494;-0.262;2023-09-08T00:42:53;18;18;
28647;PMS5003;17137;51.494;-0.262;2023-09-08T00:43:24;18;18;
28647;PMS5003;17137;51.494;-0.262;2023-09-08T00:43:54;18;18;
28647;PMS5003;17137;51.494;-0.262;2023-09-08T00:44:24;18;18;
28647;PMS5003;17137;51.494;-0.262;2023-09-08T00:44:55;16;14;
28647;PMS5003;17137;51.494;-0.262;2023-09-08T00:45:25;16;14;
28647;PMS5003;17137;51.494;-0.262;2023-09-08T00:45:59;16;14;
28647;PMS5003;17137;51.494;-0.262;2023-09-08T00:46:30;16;14;
28647;PMS5003;17137;51.494;-0.262;2023-09-08T00:47:00;16;14;
28647;PMS5003;17137;51.494;-0.262;2023-09-08T00:47:30;16;14;
28647;PMS5003;17137;51.494;-0.262;2023-09-08T00:48:01;14;14;
28647;PMS5003;17137;51.494;-0.262;2023-09-08T00:48:31;14;14;
28647;PMS5003;17137;51.494;-0.262;2023-09-08T00:49:01;14;14;
28647;PMS5003;17137;51.494;-0.262;2023-09-08T00:49:32;14;14;
28647;PMS5003;17137;51.494;-0.262;2023-09-08T00:50:03;14;14;
28647;PMS5003;17137;51.494;-0.262;2023-09-08T00:50:35;14;14;
28647;PMS5003;17137;51.494;-0.262;2023-09-08T00:51:06;15;14;
28647;PMS5003;17137;51.494;-0.262;2023-09-08T00:51:37;15;14;
28647;PMS5003;17137;51.494;-0.262;2023-09-08T00:52:07;15;14;
28647;PMS5003;17137;51.494;-0.262;2023-09-08T00:52:38;16;15;
28647;PMS5003;17137;51.494;-0.262;2023-09-08T00:53:08;17;16;
28647;PMS5003;17137;51.494;-0.262;2023-09-08T00:53:39;17;16;
28647;PMS5003;17137;51.494;-0.262;2023-09-08T00:54:10;17;16;
28647;PMS5003;17137;51.494;-0.262;2023-09-08T00:54:40;17;16;
28647;PMS5003;17137;51.494;-0.262;2023-09-08T00:55:11;17;16;
28647;PMS5003;17137;51.494;-0.262;2023-09-08T00:55:41;16;15;
28647;PMS5003;17137;51.494;-0.262;2023-09-08T00:56:12;16;15;
28647;PMS5003;17137;51.494;-0.262;2023-09-08T00:56:42;16;15;
28647;PMS5003;17137;51.494;-0.262;2023-09-08T00:57:14;16;15;
28647;PMS5003;17137;51.494;-0.262;2023-09-08T00:57:44;16;15;
28647;PMS5003;17137;51.494;-0.262;2023-09-08T00:58:15;16;15;
28647;PMS5003;17137;51.494;-0.262;2023-09-08T00:58:46;16;15;
28647;PMS5003;17137;51.494;-0.262;2023-09-08T00:59:16;16;15;
28647;PMS5003;17137;51.494;-0.262;2023-09-08T00:59:46;16;15;
28647;PMS5003;17137;51.494;-0.262;2023-09-08T01:00:17;16;15;
28647;PMS5003;17137;51.494;-0.262;2023-09-08T01:00:47;16;15;
28647;PMS5003;17137;51.494;-0.262;2023-09-08T01:01:17;14;14;
28647;PMS5003;17137;51.494;-0.262;2023-09-08T01:01:48;14;14;
28647;PMS5003;17137;51.494;-0.262;2023-09-08T01:02:18;14;14;
28647;PMS5003;17137;51.494;-0.262;2023-09-08T01:02:49;14;14;
28647;PMS5003;17137;51.494;-0.262;2023-09-08T01:03:20;14;14;
28647;PMS5003;17137;51.494;-0.262;2023-09-08T01:03:50;14;14;
28647;PMS5003;17137;51.494;-0.262;2023-09-08T01:04:20;14;14;
28647;PMS5003;17137;51.494;-0.262;2023-09-08T01:04:51;13;13;
28647;PMS5003;17137;51.494;-0.262;2023-09-08T01:05:21;13;13;
28647;PMS5003;17137;51.494;-0.262;2023-09-08T01:05:52;12;12;
28647;PMS5003;17137;51.494;-0.262;2023-09-08T01:06:22;12;12;
28647;PMS5003;17137;51.494;-0.262;2023-09-08T01:06:53;12;12;
28647;PMS5003;17137;51.494;-0.262;2023-09-08T01:07:25;12;12;
28647;PMS5003;17137;51.494;-0.262;2023-09-08T01:07:59;14;12;
28647;PMS5003;17137;51.494;-0.262;2023-09-08T01:08:31;14;12;
28647;PMS5003;17137;51.494;-0.262;2023-09-08T01:09:01;14;12;
28647;PMS5003;17137;51.494;-0.262;2023-09-08T01:09:32;17;16;
28647;PMS5003;17137;51.494;-0.262;2023-09-08T01:10:02;17;16;
28647;PMS5003;17137;51.494;-0.262;2023-09-08T01:10:33;17;15;
28647;PMS5003;17137;51.494;-0.262;2023-09-08T01:11:05;17;15;
28647;PMS5003;17137;51.494;-0.262;2023-09-08T01:11:36;17;15;
28647;PMS5003;17137;51.494;-0.262;2023-09-08T01:12:07;17;16;
28647;PMS5003;17137;51.494;-0.262;2023-09-08T01:12:38;17;16;
28647;PMS5003;17137;51.494;-0.262;2023-09-08T01:13:08;17;16;
28647;PMS5003;17137;51.494;-0.262;2023-09-08T01:13:39;17;16;
28647;PMS5003;17137;51.494;-0.262;2023-09-08T01:14:11;17;16;
28647;PMS5003;17137;51.494;-0.262;2023-09-08T01:14:42;17;16;
28647;PMS5003;17137;51.494;-0.262;2023-09-08T01:15:12;17;16;
28647;PMS5003;17137;51.494;-0.262;2023-09-08T01:15:43;17;16;
28647;PMS5003;17137;51.494;-0.262;2023-09-08T01:16:13;17;16;
28647;PMS5003;17137;51.494;-0.262;2023-09-08T01:16:43;19;18;
28647;PMS5003;17137;51.494;-0.262;2023-09-08T01:17:13;20;18;
28647;PMS5003;17137;51.494;-0.262;2023-09-08T01:17:44;17;14;
28647;PMS5003;17137;51.494;-0.262;2023-09-08T01:18:14;17;14;
28647;PMS5003;17137;51.494;-0.262;2023-09-08T01:18:44;16;14;
28647;PMS5003;17137;51.494;-0.262;2023-09-08T01:19:17;16;14;
28647;PMS5003;17137;51.494;-0.262;2023-09-08T01:19:48;16;14;
28647;PMS5003;17137;51.494;-0.262;2023-09-08T01:20:25;17;14;
28647;PMS5003;17137;51.494;-0.262;2023-09-08T01:21:12;17;14;
28647;PMS5003;17137;51.494;-0.262;2023-09-08T01:22:09;17;14;
28647;PMS5003;17137;51.494;-0.262;2023-09-08T01:22:55;17;14;
28647;PMS5003;17137;51.494;-0.262;2023-09-08T01:23:36;17;14;
28647;PMS5003;17137;51.494;-0.262;2023-09-08T01:24:26;16;13;
28647;PMS5003;17137;51.494;-0.262;2023-09-08T01:25:11;14;14;
28647;PMS5003;17137;51.494;-0.262;2023-09-08T01:25:49;14;14;
28647;PMS5003;17137;51.494;-0.262;2023-09-08T01:26:25;15;15;
28647;PMS5003;17137;51.494;-0.262;2023-09-08T01:26:59;17;14;
28647;PMS5003;17137;51.494;-0.262;2023-09-08T01:27:30;17;14;
28647;PMS5003;17137;51.494;-0.262;2023-09-08T01:28:03;23;22;
28647;PMS5003;17137;51.494;-0.262;2023-09-08T01:28:34;23;22;
28647;PMS5003;17137;51.494;-0.262;2023-09-08T01:29:07;22;22;
28647;PMS5003;17137;51.494;-0.262;2023-09-08T01:29:38;22;22;
28647;PMS5003;17137;51.494;-0.262;2023-09-08T01:30:11;22;22;
28647;PMS5003;17137;51.494;-0.262;2023-09-08T01:30:43;23;22;
28647;PMS5003;17137;51.494;-0.262;2023-09-08T01:31:14;22;21;
28647;PMS5003;17137;51.494;-0.262;2023-09-08T01:31:45;22;21;
28647;PMS5003;17137;51.494;-0.262;2023-09-08T01:32:15;22;20;
28647;PMS5003;17137;51.494;-0.262;2023-09-08T01:32:46;23;21;
28647;PMS5003;17137;51.494;-0.262;2023-09-08T01:33:17;23;21;
28647;PMS5003;17137;51.494;-0.262;2023-09-08T01:33:48;22;20;
28647;PMS5003;17137;51.494;-0.262;2023-09-08T01:34:19;21;19;
28647;PMS5003;17137;51.494;-0.262;2023-09-08T01:34:49;21;19;
28647;PMS5003;17137;51.494;-0.262;2023-09-08T01:35:20;20;18;
28647;PMS5003;17137;51.494;-0.262;2023-09-08T01:35:51;20;18;
28647;PMS5003;17137;51.494;-0.262;2023-09-08T01:36:22;20;15;
28647;PMS5003;17137;51.494;-0.262;2023-09-08T01:36:52;20;15;
28647;PMS5003;17137;51.494;-0.262;2023-09-08T01:37:23;20;16;
28647;PMS5003;17137;51.494;-0.262;2023-09-08T01:37:53;19;15;
28647;PMS5003;17137;51.494;-0.262;2023-09-08T01:38:24;19;15;
28647;PMS5003;17137;51.494;-0.262;2023-09-08T01:38:55;18;15;
28647;PMS5003;17137;51.494;-0.262;2023-09-08T01:39:25;18;15;
28647;PMS5003;17137;51.494;-0.262;2023-09-08T01:39:55;18;15;
28647;PMS5003;17137;51.494;-0.262;2023-09-08T01:40:25;18;15;
28647;PMS5003;17137;51.494;-0.262;2023-09-08T01:40:55;18;15;
28647;PMS5003;17137;51.494;-0.262;2023-09-08T01:41:26;19;16;
28647;PMS5003;17137;51.494;-0.262;2023-09-08T01:41:56;20;16;
28647;PMS5003;17137;51.494;-0.262;2023-09-08T01:42:26;20;16;
28647;PMS5003;17137;51.494;-0.262;2023-09-08T01:42:56;20;16;
28647;PMS5003;17137;51.494;-0.262;2023-09-08T01:43:27;20;15;
28647;PMS5003;17137;51.494;-0.262;2023-09-08T01:43:57;20;15;
28647;PMS5003;17137;51.494;-0.262;2023-09-08T01:44:27;17;15;
28647;PMS5003;17137;51.494;-0.262;2023-09-08T01:45:03;17;15;
28647;PMS5003;17137;51.494;-0.262;2023-09-08T01:45:34;17;15;
28647;PMS5003;17137;51.494;-0.262;2023-09-08T01:46:05;17;15;
28647;PMS5003;17137;51.494;-0.262;2023-09-08T01:46:35;17;15;
28647;PMS5003;17137;51.494;-0.262;2023-09-08T01:47:05;17;15;
28647;PMS5003;17137;51.494;-0.262;2023-09-08T01:47:36;18;16;
28647;PMS5003;17137;51.494;-0.262;2023-09-08T01:48:06;18;16;
28647;PMS5003;17137;51.494;-0.262;2023-09-08T01:48:37;18;16;
28647;PMS5003;17137;51.494;-0.262;2023-09-08T01:49:07;17;15;
28647;PMS5003;17137;51.494;-0.262;2023-09-08T01:49:37;17;15;
28647;PMS5003;17137;51.494;-0.262;2023-09-08T01:50:08;17;15;
28647;PMS5003;17137;51.494;-0.262;2023-09-08T01:50:39;19;16;
28647;PMS5003;17137;51.494;-0.262;2023-09-08T01:51:09;19;16;
28647;PMS5003;17137;51.494;-0.262;2023-09-08T01:51:39;19;16;
28647;PMS5003;17137;51.494;-0.262;2023-09-08T01:52:09;19;15;
28647;PMS5003;17137;51.494;-0.262;2023-09-08T01:52:40;19;17;
28647;PMS5003;17137;51.494;-0.262;2023-09-08T01:53:10;19;17;
28647;PMS5003;17137;51.494;-0.262;2023-09-08T01:53:40;19;17;
28647;PMS5003;17137;51.494;-0.262;2023-09-08T01:54:10;16;16;
28647;PMS5003;17137;51.494;-0.262;2023-09-08T01:54:41;16;16;
28647;PMS5003;17137;51.494;-0.262;2023-09-08T01:55:11;16;16;
28647;PMS5003;17137;51.494;-0.262;2023-09-08T01:55:41;15;15;
28647;PMS5003;17137;51.494;-0.262;2023-09-08T01:56:11;15;15;
28647;PMS5003;17137;51.494;-0.262;2023-09-08T01:56:42;15;15;
28647;PMS5003;17137;51.494;-0.262;2023-09-08T01:57:12;15;15;
28647;PMS5003;17137;51.494;-0.262;2023-09-08T01:57:42;15;15;
28647;PMS5003;17137;51.494;-0.262;2023-09-08T01:58:12;15;15;
28647;PMS5003;17137;51.494;-0.262;2023-09-08T01:58:43;15;15;
28647;PMS5003;17137;51.494;-0.262;2023-09-08T01:59:13;15;15;
28647;PMS5003;17137;51.494;-0.262;2023-09-08T01:59:43;15;15;
28647;PMS5003;17137;51.494;-0.262;2023-09-08T02:00:14;16;16;
28647;PMS5003;17137;51.494;-0.262;2023-09-08T02:00:47;22;21;
28647;PMS5003;17137;51.494;-0.262;2023-09-08T02:01:18;22;21;
28647;PMS5003;17137;51.494;-0.262;2023-09-08T02:01:49;22;21;
28647;PMS5003;17137;51.494;-0.262;2023-09-08T02:02:19;22;21;
28647;PMS5003;17137;51.494;-0.262;2023-09-08T02:02:49;22;21;
28647;PMS5003;17137;51.494;-0.262;2023-09-08T02:03:19;22;21;
28647;PMS5003;17137;51.494;-0.262;2023-09-08T02:03:50;22;21;
28647;PMS5003;17137;51.494;-0.262;2023-09-08T02:04:20;22;21;
28647;PMS5003;17137;51.494;-0.262;2023-09-08T02:04:50;22;21;
28647;PMS5003;17137;51.494;-0.262;2023-09-08T02:05:20;22;21;
28647;PMS5003;17137;51.494;-0.262;2023-09-08T02:05:51;22;21;
28647;PMS5003;17137;51.494;-0.262;2023-09-08T02:06:21;22;21;
28647;PMS5003;17137;51.494;-0.262;2023-09-08T02:06:51;20;19;
28647;PMS5003;17137;51.494;-0.262;2023-09-08T02:07:22;20;19;
28647;PMS5003;17137;51.494;-0.262;2023-09-08T02:07:52;20;19;
28647;PMS5003;17137;51.494;-0.262;2023-09-08T02:08:22;19;17;
28647;PMS5003;17137;51.494;-0.262;2023-09-08T02:08:52;17;17;
28647;PMS5003;17137;51.494;-0.262;2023-09-08T02:09:29;18;18;
28647;PMS5003;17137;51.494;-0.262;2023-09-08T02:10:00;18;18;
28647;PMS5003;17137;51.494;-0.262;2023-09-08T02:10:30;19;19;
28647;PMS5003;17137;51.494;-0.262;2023-09-08T02:11:00;17;17;
28647;PMS5003;17137;51.494;-0.262;2023-09-08T02:11:31;18;18;
28647;PMS5003;17137;51.494;-0.262;2023-09-08T02:12:01;19;19;
28647;PMS5003;17137;51.494;-0.262;2023-09-08T02:12:32;19;19;
28647;PMS5003;17137;51.494;-0.262;2023-09-08T02:13:03;19;19;
28647;PMS5003;17137;51.494;-0.262;2023-09-08T02:13:33;19;19;
28647;PMS5003;17137;51.494;-0.262;2023-09-08T02:14:03;19;18;
28647;PMS5003;17137;51.494;-0.262;2023-09-08T02:14:34;19;18;
28647;PMS5003;17137;51.494;-0.262;2023-09-08T02:15:04;19;18;
28647;PMS5003;17137;51.494;-0.262;2023-09-08T02:15:36;19;18;
28647;PMS5003;17137;51.494;-0.262;2023-09-08T02:16:06;19;18;
28647;PMS5003;17137;51.494;-0.262;2023-09-08T02:16:36;19;18;
28647;PMS5003;17137;51.494;-0.262;2023-09-08T02:17:06;20;20;
28647;PMS5003;17137;51.494;-0.262;2023-09-08T02:17:37;20;20;
28647;PMS5003;17137;51.494;-0.262;2023-09-08T02:18:07;19;19;
28647;PMS5003;17137;51.494;-0.262;2023-09-08T02:18:37;19;19;
28647;PMS5003;17137;51.494;-0.262;2023-09-08T02:19:08;19;19;
28647;PMS5003;17137;51.494;-0.262;2023-09-08T02:19:38;19;19;
28647;PMS5003;17137;51.494;-0.262;2023-09-08T02:20:09;19;19;
28647;PMS5003;17137;51.494;-0.262;2023-09-08T02:20:40;19;19;
28647;PMS5003;17137;51.494;-0.262;2023-09-08T02:21:10;20;19;
28647;PMS5003;17137;51.494;-0.262;2023-09-08T02:21:40;20;19;
28647;PMS5003;17137;51.494;-0.262;2023-09-08T02:22:11;20;19;
28647;PMS5003;17137;51.494;-0.262;2023-09-08T02:22:41;20;19;
28647;PMS5003;17137;51.494;-0.262;2023-09-08T02:23:11;20;19;
28647;PMS5003;17137;51.494;-0.262;2023-09-08T02:23:41;20;19;
28647;PMS5003;17137;51.494;-0.262;2023-09-08T02:24:12;20;19;
28647;PMS5003;17137;51.494;-0.262;2023-09-08T02:24:42;20;19;
28647;PMS5003;17137;51.494;-0.262;2023-09-08T02:25:12;13;12;
28647;PMS5003;17137;51.494;-0.262;2023-09-08T02:25:43;13;12;
28647;PMS5003;17137;51.494;-0.262;2023-09-08T02:26:13;12;11;
28647;PMS5003;17137;51.494;-0.262;2023-09-08T02:26:43;12;11;
28647;PMS5003;17137;51.494;-0.262;2023-09-08T02:27:13;12;11;
28647;PMS5003;17137;51.494;-0.262;2023-09-08T02:27:44;13;12;
28647;PMS5003;17137;51.494;-0.262;2023-09-08T02:28:14;13;12;
28647;PMS5003;17137;51.494;-0.262;2023-09-08T02:28:44;13;12;
28647;PMS5003;17137;51.494;-0.262;2023-09-08T02:29:14;14;12;
28647;PMS5003;17137;51.494;-0.262;2023-09-08T02:29:45;14;12;
28647;PMS5003;17137;51.494;-0.262;2023-09-08T02:30:15;14;12;
28647;PMS5003;17137;51.494;-0.262;2023-09-08T02:30:45;14;12;
28647;PMS5003;17137;51.494;-0.262;2023-09-08T02:31:16;14;12;
28647;PMS5003;17137;51.494;-0.262;2023-09-08T02:31:46;14;12;
28647;PMS5003;17137;51.494;-0.262;2023-09-08T02:32:16;14;12;
28647;PMS5003;17137;51.494;-0.262;2023-09-08T02:32:46;14;12;
28647;PMS5003;17137;51.494;-0.262;2023-09-08T02:33:16;14;12;
28647;PMS5003;17137;51.494;-0.262;2023-09-08T02:33:47;14;12;
28647;PMS5003;17137;51.494;-0.262;2023-09-08T02:34:17;14;13;
28647;PMS5003;17137;51.494;-0.262;2023-09-08T02:34:47;14;13;
28647;PMS5003;17137;51.494;-0.262;2023-09-08T02:35:18;14;13;
28647;PMS5003;17137;51.494;-0.262;2023-09-08T02:35:48;14;13;
28647;PMS5003;17137;51.494;-0.262;2023-09-08T02:36:18;14;13;
28647;PMS5003;17137;51.494;-0.262;2023-09-08T02:36:48;14;13;
28647;PMS5003;17137;51.494;-0.262;2023-09-08T02:37:19;14;14;
28647;PMS5003;17137;51.494;-0.262;2023-09-08T02:37:54;14;14;
28647;PMS5003;17137;51.494;-0.262;2023-09-08T02:38:24;14;14;
28647;PMS5003;17137;51.494;-0.262;2023-09-08T02:38:55;15;15;
28647;PMS5003;17137;51.494;-0.262;2023-09-08T02:39:31;15;15;
28647;PMS5003;17137;51.494;-0.262;2023-09-08T02:40:02;15;15;
28647;PMS5003;17137;51.494;-0.262;2023-09-08T02:40:33;15;15;
28647;PMS5003;17137;51.494;-0.262;2023-09-08T02:41:03;15;15;
28647;PMS5003;17137;51.494;-0.262;2023-09-08T02:41:34;16;16;
28647;PMS5003;17137;51.494;-0.262;2023-09-08T02:42:04;16;16;
28647;PMS5003;17137;51.494;-0.262;2023-09-08T02:42:34;16;16;
28647;PMS5003;17137;51.494;-0.262;2023-09-08T02:43:04;15;15;
28647;PMS5003;17137;51.494;-0.262;2023-09-08T02:43:35;15;15;
28647;PMS5003;17137;51.494;-0.262;2023-09-08T02:44:05;15;15;
28647;PMS5003;17137;51.494;-0.262;2023-09-08T02:44:35;15;15;
28647;PMS5003;17137;51.494;-0.262;2023-09-08T02:45:06;15;15;
28647;PMS5003;17137;51.494;-0.262;2023-09-08T02:45:37;15;15;
28647;PMS5003;17137;51.494;-0.262;2023-09-08T02:46:07;16;16;
28647;PMS5003;17137;51.494;-0.262;2023-09-08T02:46:37;15;15;
28647;PMS5003;17137;51.494;-0.262;2023-09-08T02:47:07;15;15;
28647;PMS5003;17137;51.494;-0.262;2023-09-08T02:47:38;15;15;
28647;PMS5003;17137;51.494;-0.262;2023-09-08T02:48:08;16;16;
28647;PMS5003;17137;51.494;-0.262;2023-09-08T02:48:38;16;16;
28647;PMS5003;17137;51.494;-0.262;2023-09-08T02:49:09;15;15;
28647;PMS5003;17137;51.494;-0.262;2023-09-08T02:49:39;19;14;
28647;PMS5003;17137;51.494;-0.262;2023-09-08T02:50:09;18;14;
28647;PMS5003;17137;51.494;-0.262;2023-09-08T02:50:39;18;14;
28647;PMS5003;17137;51.494;-0.262;2023-09-08T02:51:10;18;14;
28647;PMS5003;17137;51.494;-0.262;2023-09-08T02:51:40;18;13;
28647;PMS5003;17137;51.494;-0.262;2023-09-08T02:52:10;18;13;
28647;PMS5003;17137;51.494;-0.262;2023-09-08T02:52:41;18;13;
28647;PMS5003;17137;51.494;-0.262;2023-09-08T02:53:11;18;13;
28647;PMS5003;17137;51.494;-0.262;2023-09-08T02:53:41;17;12;
28647;PMS5003;17137;51.494;-0.262;2023-09-08T02:54:12;17;12;
28647;PMS5003;17137;51.494;-0.262;2023-09-08T02:54:42;15;12;
28647;PMS5003;17137;51.494;-0.262;2023-09-08T02:55:12;16;13;
28647;PMS5003;17137;51.494;-0.262;2023-09-08T02:55:43;16;13;
28647;PMS5003;17137;51.494;-0.262;2023-09-08T02:56:15;16;13;
28647;PMS5003;17137;51.494;-0.262;2023-09-08T02:56:45;16;13;
28647;PMS5003;17137;51.494;-0.262;2023-09-08T02:57:15;16;13;
28647;PMS5003;17137;51.494;-0.262;2023-09-08T02:57:45;16;15;
28647;PMS5003;17137;51.494;-0.262;2023-09-08T02:58:16;16;15;
28647;PMS5003;17137;51.494;-0.262;2023-09-08T02:58:46;16;15;
28647;PMS5003;17137;51.494;-0.262;2023-09-08T02:59:16;16;15;
28647;PMS5003;17137;51.494;-0.262;2023-09-08T02:59:48;17;15;
28647;PMS5003;17137;51.494;-0.262;2023-09-08T03:00:19;17;15;
28647;PMS5003;17137;51.494;-0.262;2023-09-08T03:00:49;17;15;
28647;PMS5003;17137;51.494;-0.262;2023-09-08T03:01:19;16;14;
28647;PMS5003;17137;51.494;-0.262;2023-09-08T03:01:50;16;14;
28647;PMS5003;17137;51.494;-0.262;2023-09-08T03:02:20;16;14;
28647;PMS5003;17137;51.494;-0.262;2023-09-08T03:02:50;15;14;
28647;PMS5003;17137;51.494;-0.262;2023-09-08T03:03:21;15;14;
28647;PMS5003;17137;51.494;-0.262;2023-09-08T03:03:56;15;14;
28647;PMS5003;17137;51.494;-0.262;2023-09-08T03:04:26;15;14;
28647;PMS5003;17137;51.494;-0.262;2023-09-08T03:04:56;15;14;
28647;PMS5003;17137;51.494;-0.262;2023-09-08T03:05:26;15;14;
28647;PMS5003;17137;51.494;-0.262;2023-09-08T03:05:57;17;12;
28647;PMS5003;17137;51.494;-0.262;2023-09-08T03:06:27;17;12;
28647;PMS5003;17137;51.494;-0.262;2023-09-08T03:06:57;17;12;
28647;PMS5003;17137;51.494;-0.262;2023-09-08T03:07:27;18;14;
28647;PMS5003;17137;51.494;-0.262;2023-09-08T03:07:58;18;14;
28647;PMS5003;17137;51.494;-0.262;2023-09-08T03:08:28;18;14;
28647;PMS5003;17137;51.494;-0.262;2023-09-08T03:08:58;19;14;
28647;PMS5003;17137;51.494;-0.262;2023-09-08T03:09:28;19;14;
28647;PMS5003;17137;51.494;-0.262;2023-09-08T03:09:59;19;14;
28647;PMS5003;17137;51.494;-0.262;2023-09-08T03:10:29;20;16;
28647;PMS5003;17137;51.494;-0.262;2023-09-08T03:10:59;20;16;
28647;PMS5003;17137;51.494;-0.262;2023-09-08T03:11:29;20;16;
28647;PMS5003;17137;51.494;-0.262;2023-09-08T03:12:00;19;15;
28647;PMS5003;17137;51.494;-0.262;2023-09-08T03:12:30;19;15;
28647;PMS5003;17137;51.494;-0.262;2023-09-08T03:13:00;19;15;
28647;PMS5003;17137;51.494;-0.262;2023-09-08T03:13:31;17;15;
28647;PMS5003;17137;51.494;-0.262;2023-09-08T03:14:01;16;13;
28647;PMS5003;17137;51.494;-0.262;2023-09-08T03:14:31;16;13;
28647;PMS5003;17137;51.494;-0.262;2023-09-08T03:15:02;14;12;
28647;PMS5003;17137;51.494;-0.262;2023-09-08T03:15:34;14;12;
28647;PMS5003;17137;51.494;-0.262;2023-09-08T03:16:05;14;12;
28647;PMS5003;17137;51.494;-0.262;2023-09-08T03:16:37;15;12;
28647;PMS5003;17137;51.494;-0.262;2023-09-08T03:17:07;15;12;
28647;PMS5003;17137;51.494;-0.262;2023-09-08T03:17:37;15;12;
28647;PMS5003;17137;51.494;-0.262;2023-09-08T03:18:07;15;13;
28647;PMS5003;17137;51.494;-0.262;2023-09-08T03:18:38;15;13;
28647;PMS5003;17137;51.494;-0.262;2023-09-08T03:19:08;15;13;
28647;PMS5003;17137;51.494;-0.262;2023-09-08T03:19:38;14;12;
28647;PMS5003;17137;51.494;-0.262;2023-09-08T03:20:09;14;12;
28647;PMS5003;17137;51.494;-0.262;2023-09-08T03:20:40;14;12;
28647;PMS5003;17137;51.494;-0.262;2023-09-08T03:21:13;15;13;
28647;PMS5003;17137;51.494;-0.262;2023-09-08T03:21:44;15;13;